createdAt,value
2019-01-17T00:00:05.653Z,8.89
2019-01-17T00:01:05.639Z,12.69
2019-01-17T00:02:05.631Z,9.80
2019-01-17T00:03:05.619Z,10.00
2019-01-17T00:04:05.608Z,10.00
2019-01-17T00:05:05.598Z,11.60
2019-01-17T00:06:05.585Z,8.50
2019-01-17T00:07:05.574Z,9.50
2019-01-17T00:08:05.561Z,8.80
2019-01-17T00:09:05.554Z,10.50
2019-01-17T00:10:05.541Z,9.00
2019-01-17T00:11:05.532Z,8.89
2019-01-17T00:12:05.518Z,9.80
2019-01-17T00:13:05.507Z,9.50
2019-01-17T00:14:05.497Z,8.39
2019-01-17T00:15:05.485Z,8.80
2019-01-17T00:16:05.480Z,10.19
2019-01-17T00:17:05.463Z,9.50
2019-01-17T00:18:05.452Z,9.80
2019-01-17T00:19:05.442Z,10.89
2019-01-17T00:20:05.432Z,9.89
2019-01-17T00:21:05.423Z,9.19
2019-01-17T00:22:05.411Z,9.39
2019-01-17T00:23:05.399Z,8.50
2019-01-17T00:24:05.386Z,8.39
2019-01-17T00:25:05.375Z,9.80
2019-01-17T00:26:05.367Z,11.10
2019-01-17T00:27:05.359Z,9.30
2019-01-17T00:28:05.344Z,9.30
2019-01-17T00:29:06.173Z,9.69
2019-01-17T00:30:05.322Z,9.80
2019-01-17T00:31:05.310Z,8.50
2019-01-17T00:32:05.301Z,9.19
2019-01-17T00:33:05.289Z,9.30
2019-01-17T00:34:05.280Z,10.10
2019-01-17T00:35:05.270Z,10.00
2019-01-17T00:36:05.257Z,10.30
2019-01-17T00:37:05.245Z,10.69
2019-01-17T00:38:05.236Z,9.60
2019-01-17T00:39:05.223Z,9.30
2019-01-17T00:40:05.215Z,8.39
2019-01-17T00:41:05.207Z,9.69
2019-01-17T00:42:05.190Z,9.69
2019-01-17T00:43:05.182Z,9.89
2019-01-17T00:44:05.169Z,9.50
2019-01-17T00:45:05.159Z,8.80
2019-01-17T00:46:05.151Z,8.60
2019-01-17T00:47:05.138Z,9.19
2019-01-17T00:48:05.127Z,7.80
2019-01-17T00:49:05.115Z,8.80
2019-01-17T00:50:05.105Z,11.00
2019-01-17T00:51:05.094Z,12.19
2019-01-17T00:52:05.082Z,10.89
2019-01-17T00:53:05.076Z,9.30
2019-01-17T00:54:09.041Z,9.00
2019-01-17T00:55:05.048Z,8.30
2019-01-17T00:56:05.039Z,8.00
2019-01-17T00:57:05.027Z,10.19
2019-01-17T00:58:05.018Z,10.60
2019-01-17T00:59:05.004Z,11.10
2019-01-17T01:00:04.994Z,10.60
2019-01-17T01:01:04.983Z,10.10
2019-01-17T01:02:04.972Z,10.10
2019-01-17T01:03:04.961Z,10.69
2019-01-17T01:04:04.959Z,10.39
2019-01-17T01:05:04.940Z,10.30
2019-01-17T01:06:04.928Z,10.80
2019-01-17T01:07:04.918Z,9.10
2019-01-17T01:08:04.906Z,10.10
2019-01-17T01:09:04.900Z,11.39
2019-01-17T01:10:04.886Z,10.89
2019-01-17T01:11:04.881Z,10.60
2019-01-17T01:12:04.862Z,9.10
2019-01-17T01:13:04.858Z,11.69
2019-01-17T01:14:04.845Z,11.89
2019-01-17T01:15:04.837Z,12.10
2019-01-17T01:16:04.820Z,9.39
2019-01-17T01:17:04.813Z,13.89
2019-01-17T01:18:04.798Z,13.30
2019-01-17T01:19:04.790Z,10.19
2019-01-17T01:20:04.779Z,11.00
2019-01-17T01:21:04.771Z,12.19
2019-01-17T01:22:04.756Z,12.10
2019-01-17T01:23:04.749Z,13.19
2019-01-17T01:24:04.732Z,14.10
2019-01-17T01:25:04.724Z,9.69
2019-01-17T01:26:04.710Z,13.00
2019-01-17T01:27:04.701Z,13.60
2019-01-17T01:28:04.690Z,12.39
2019-01-17T01:29:04.691Z,12.39
2019-01-17T01:30:04.670Z,12.50
2019-01-17T01:31:04.657Z,13.89
2019-01-17T01:32:04.646Z,14.69
2019-01-17T01:33:04.640Z,12.50
2019-01-17T01:34:04.625Z,13.80
2019-01-17T01:35:04.615Z,11.80
2019-01-17T01:36:04.602Z,11.89
2019-01-17T01:37:04.591Z,12.60
2019-01-17T01:38:04.584Z,12.00
2019-01-17T01:39:04.569Z,12.60
2019-01-17T01:40:04.559Z,15.39
2019-01-17T01:41:04.550Z,14.30
2019-01-17T01:42:04.538Z,14.00
2019-01-17T01:43:04.526Z,14.00
2019-01-17T01:44:04.514Z,11.89
2019-01-17T01:45:04.520Z,14.69
2019-01-17T01:46:04.532Z,13.19
2019-01-17T01:47:04.483Z,12.89
2019-01-17T01:48:04.472Z,12.19
2019-01-17T01:49:04.461Z,13.19
2019-01-17T01:50:04.448Z,11.89
2019-01-17T01:51:04.439Z,11.10
2019-01-17T01:52:04.434Z,11.89
2019-01-17T01:53:04.418Z,11.19
2019-01-17T01:54:04.403Z,15.60
2019-01-17T01:55:04.393Z,13.80
2019-01-17T01:56:04.386Z,12.69
2019-01-17T01:57:04.372Z,13.69
2019-01-17T01:58:04.362Z,13.50
2019-01-17T01:59:04.352Z,12.80
2019-01-17T02:00:04.342Z,13.69
2019-01-17T02:01:04.329Z,15.30
2019-01-17T02:02:04.318Z,14.80
2019-01-17T02:03:04.308Z,12.69
2019-01-17T02:04:04.295Z,11.89
2019-01-17T02:05:04.286Z,11.39
2019-01-17T02:06:04.275Z,11.50
2019-01-17T02:07:04.264Z,8.60
2019-01-17T02:08:04.262Z,12.30
2019-01-17T02:09:04.240Z,12.69
2019-01-17T02:10:04.230Z,13.80
2019-01-17T02:11:04.220Z,10.19
2019-01-17T02:12:04.211Z,11.00
2019-01-17T02:13:04.199Z,11.69
2019-01-17T02:14:04.185Z,10.00
2019-01-17T02:15:04.176Z,10.50
2019-01-17T02:16:04.162Z,11.10
2019-01-17T02:17:04.160Z,9.60
2019-01-17T02:18:04.143Z,10.60
2019-01-17T02:19:04.131Z,10.00
2019-01-17T02:20:04.121Z,8.89
2019-01-17T02:21:04.109Z,11.10
2019-01-17T02:22:04.098Z,9.30
2019-01-17T02:23:04.089Z,11.80
2019-01-17T02:24:04.077Z,10.60
2019-01-17T02:25:04.064Z,11.60
2019-01-17T02:26:04.054Z,10.50
2019-01-17T02:27:04.045Z,8.80
2019-01-17T02:28:04.033Z,10.19
2019-01-17T02:29:04.022Z,6.59
2019-01-17T02:30:04.011Z,9.39
2019-01-17T02:31:03.999Z,9.00
2019-01-17T02:32:03.989Z,8.30
2019-01-17T02:33:03.976Z,9.19
2019-01-17T02:34:03.965Z,10.39
2019-01-17T02:35:03.958Z,8.89
2019-01-17T02:36:03.947Z,10.00
2019-01-17T02:37:03.936Z,10.00
2019-01-17T02:38:03.923Z,8.39
2019-01-17T02:39:03.911Z,9.39
2019-01-17T02:40:03.900Z,7.30
2019-01-17T02:41:03.893Z,6.90
2019-01-17T02:42:03.881Z,8.00
2019-01-17T02:43:03.910Z,7.90
2019-01-17T02:44:03.857Z,7.80
2019-01-17T02:45:03.850Z,7.90
2019-01-17T02:46:03.835Z,10.19
2019-01-17T02:47:03.825Z,8.00
2019-01-17T02:48:03.814Z,9.80
2019-01-17T02:49:03.802Z,7.69
2019-01-17T02:50:03.791Z,9.50
2019-01-17T02:51:03.780Z,7.90
2019-01-17T02:52:03.770Z,9.39
2019-01-17T02:53:03.759Z,8.00
2019-01-17T02:54:03.852Z,8.60
2019-01-17T02:55:03.742Z,9.60
2019-01-17T02:56:03.728Z,8.69
2019-01-17T02:57:03.718Z,7.80
2019-01-17T02:58:03.705Z,6.69
2019-01-17T02:59:03.696Z,7.59
2019-01-17T03:00:03.682Z,5.80
2019-01-17T03:01:03.675Z,8.19
2019-01-17T03:02:03.666Z,7.00
2019-01-17T03:03:03.660Z,6.90
2019-01-17T03:04:03.644Z,3.90
2019-01-17T03:05:03.635Z,5.59
2019-01-17T03:06:03.623Z,5.80
2019-01-17T03:07:03.622Z,5.80
2019-01-17T03:08:03.597Z,5.40
2019-01-17T03:09:03.594Z,5.50
2019-01-17T03:10:03.576Z,3.90
2019-01-17T03:11:03.565Z,4.80
2019-01-17T03:12:03.553Z,4.90
2019-01-17T03:13:03.542Z,5.09
2019-01-17T03:14:03.542Z,7.00
2019-01-17T03:15:03.522Z,5.80
2019-01-17T03:16:03.527Z,4.80
2019-01-17T03:17:03.498Z,4.90
2019-01-17T03:18:03.489Z,6.69
2019-01-17T03:19:03.486Z,6.69
2019-01-17T03:20:03.469Z,5.30
2019-01-17T03:21:03.455Z,5.40
2019-01-17T03:22:03.448Z,5.50
2019-01-17T03:23:03.432Z,5.69
2019-01-17T03:24:03.423Z,5.00
2019-01-17T03:25:03.411Z,7.19
2019-01-17T03:26:03.402Z,7.09
2019-01-17T03:27:03.389Z,7.69
2019-01-17T03:28:03.377Z,5.80
2019-01-17T03:29:03.367Z,6.30
2019-01-17T03:30:03.379Z,6.69
2019-01-17T03:31:03.357Z,6.30
2019-01-17T03:32:03.346Z,6.69
2019-01-17T03:33:03.338Z,5.59
2019-01-17T03:34:03.313Z,6.50
2019-01-17T03:35:03.301Z,7.80
2019-01-17T03:36:03.291Z,7.50
2019-01-17T03:37:03.279Z,6.69
2019-01-17T03:38:03.267Z,6.80
2019-01-17T03:39:03.257Z,6.59
2019-01-17T03:40:03.257Z,5.30
2019-01-17T03:41:03.237Z,5.59
2019-01-17T03:42:03.224Z,6.09
2019-01-17T03:43:03.213Z,7.40
2019-01-17T03:44:03.203Z,6.00
2019-01-17T03:45:03.205Z,8.30
2019-01-17T03:46:03.182Z,7.30
2019-01-17T03:47:03.168Z,7.30
2019-01-17T03:48:03.158Z,6.80
2019-01-17T03:49:03.149Z,6.59
2019-01-17T03:50:03.138Z,6.59
2019-01-17T03:51:03.126Z,6.09
2019-01-17T03:52:03.118Z,8.00
2019-01-17T03:53:03.115Z,7.59
2019-01-17T03:54:03.094Z,8.80
2019-01-17T03:55:03.083Z,9.50
2019-01-17T03:56:03.075Z,9.10
2019-01-17T03:57:03.064Z,7.80
2019-01-17T03:58:03.051Z,10.69
2019-01-17T03:59:03.038Z,14.00
2019-01-17T04:00:03.034Z,10.39
2019-01-17T04:01:03.017Z,11.69
2019-01-17T04:02:03.007Z,9.39
2019-01-17T04:03:02.994Z,9.50
2019-01-17T04:04:03.000Z,11.30
2019-01-17T04:05:02.977Z,11.39
2019-01-17T04:06:02.963Z,8.10
2019-01-17T04:07:02.954Z,7.90
2019-01-17T04:08:02.943Z,10.19
2019-01-17T04:09:02.937Z,8.50
2019-01-17T04:10:02.920Z,7.90
2019-01-17T04:11:02.908Z,8.50
2019-01-17T04:12:02.898Z,7.80
2019-01-17T04:13:02.888Z,8.50
2019-01-17T04:14:02.877Z,7.90
2019-01-17T04:15:02.863Z,9.30
2019-01-17T04:16:02.859Z,8.89
2019-01-17T04:17:02.844Z,6.19
2019-01-17T04:18:02.837Z,6.50
2019-01-17T04:19:02.821Z,7.40
2019-01-17T04:20:02.809Z,7.00
2019-01-17T04:21:02.798Z,6.80
2019-01-17T04:22:02.792Z,6.90
2019-01-17T04:23:02.782Z,6.50
2019-01-17T04:24:02.768Z,5.80
2019-01-17T04:25:02.756Z,6.09
2019-01-17T04:26:02.743Z,5.90
2019-01-17T04:27:02.741Z,6.50
2019-01-17T04:28:02.723Z,6.59
2019-01-17T04:29:02.712Z,4.90
2019-01-17T04:30:02.712Z,5.09
2019-01-17T04:31:02.690Z,4.40
2019-01-17T04:32:02.680Z,3.70
2019-01-17T04:33:02.666Z,4.00
2019-01-17T04:34:02.656Z,3.70
2019-01-17T04:35:02.646Z,4.40
2019-01-17T04:36:02.634Z,3.70
2019-01-17T04:37:02.622Z,3.59
2019-01-17T04:38:02.611Z,3.09
2019-01-17T04:39:02.605Z,3.79
2019-01-17T04:40:02.591Z,3.90
2019-01-17T04:41:02.582Z,3.29
2019-01-17T04:42:02.571Z,3.29
2019-01-17T04:43:02.560Z,3.40
2019-01-17T04:44:02.550Z,3.29
2019-01-17T04:45:02.539Z,4.00
2019-01-17T04:46:02.526Z,3.90
2019-01-17T04:47:02.516Z,4.40
2019-01-17T04:48:02.508Z,4.00
2019-01-17T04:49:02.497Z,3.40
2019-01-17T04:50:02.482Z,2.70
2019-01-17T04:51:02.475Z,2.70
2019-01-17T04:52:02.462Z,3.50
2019-01-17T04:53:02.454Z,3.00
2019-01-17T04:54:02.499Z,3.00
2019-01-17T04:55:05.351Z,2.59
2019-01-17T04:56:02.419Z,2.79
2019-01-17T04:57:02.410Z,3.70
2019-01-17T04:58:02.399Z,2.40
2019-01-17T04:59:02.387Z,2.90
2019-01-17T05:00:02.376Z,2.50
2019-01-17T05:01:02.365Z,2.79
2019-01-17T05:02:02.355Z,2.59
2019-01-17T05:03:02.347Z,2.00
2019-01-17T05:04:02.333Z,2.29
2019-01-17T05:05:02.323Z,2.40
2019-01-17T05:06:02.311Z,1.79
2019-01-17T05:07:02.299Z,2.20
2019-01-17T05:08:02.293Z,1.79
2019-01-17T05:09:02.280Z,1.50
2019-01-17T05:10:02.268Z,1.60
2019-01-17T05:11:02.257Z,1.60
2019-01-17T05:12:02.246Z,2.20
2019-01-17T05:13:02.238Z,1.60
2019-01-17T05:14:02.227Z,1.70
2019-01-17T05:15:02.215Z,1.90
2019-01-17T05:16:02.212Z,1.90
2019-01-17T05:17:02.205Z,2.59
2019-01-17T05:18:02.184Z,1.29
2019-01-17T05:19:02.173Z,1.50
2019-01-17T05:20:02.160Z,1.50
2019-01-17T05:21:02.150Z,1.20
2019-01-17T05:22:02.141Z,1.39
2019-01-17T05:23:02.132Z,1.29
2019-01-17T05:24:02.118Z,1.10
2019-01-17T05:25:02.110Z,1.29
2019-01-17T05:26:02.101Z,1.20
2019-01-17T05:27:02.086Z,1.39
2019-01-17T05:28:02.081Z,1.60
2019-01-17T05:29:02.071Z,1.90
2019-01-17T05:30:02.054Z,1.50
2019-01-17T05:31:02.044Z,1.39
2019-01-17T05:32:02.032Z,1.39
2019-01-17T05:33:02.022Z,1.60
2019-01-17T05:34:02.017Z,1.50
2019-01-17T05:35:02.003Z,1.20
2019-01-17T05:36:01.989Z,2.20
2019-01-17T05:37:01.979Z,1.10
2019-01-17T05:38:01.966Z,1.60
2019-01-17T05:39:01.959Z,1.50
2019-01-17T05:40:01.947Z,1.50
2019-01-17T05:41:01.933Z,1.29
2019-01-17T05:42:01.922Z,1.29
2019-01-17T05:43:01.911Z,1.39
2019-01-17T05:44:01.901Z,2.00
2019-01-17T05:45:01.895Z,1.79
2019-01-17T05:46:01.881Z,2.00
2019-01-17T05:47:01.870Z,1.50
2019-01-17T05:48:01.858Z,1.50
2019-01-17T05:49:01.849Z,1.79
2019-01-17T05:50:01.842Z,1.10
2019-01-17T05:51:01.827Z,2.09
2019-01-17T05:52:01.816Z,1.79
2019-01-17T05:53:01.804Z,1.79
2019-01-17T05:54:01.792Z,1.20
2019-01-17T05:55:01.781Z,1.50
2019-01-17T05:56:01.772Z,1.39
2019-01-17T05:57:01.760Z,1.29
2019-01-17T05:58:01.751Z,1.39
2019-01-17T05:59:01.757Z,1.29
2019-01-17T06:00:01.730Z,1.70
2019-01-17T06:01:01.718Z,1.70
2019-01-17T06:02:01.708Z,1.60
2019-01-17T06:03:01.697Z,3.20
2019-01-17T06:04:01.686Z,1.50
2019-01-17T06:05:01.674Z,1.50
2019-01-17T06:06:01.662Z,1.50
2019-01-17T06:07:01.656Z,2.00
2019-01-17T06:08:01.642Z,1.90
2019-01-17T06:09:01.629Z,1.50
2019-01-17T06:10:01.620Z,2.59
2019-01-17T06:11:01.608Z,1.70
2019-01-17T06:12:01.597Z,1.70
2019-01-17T06:13:01.586Z,1.70
2019-01-17T06:14:01.577Z,2.59
2019-01-17T06:15:01.578Z,1.90
2019-01-17T06:16:01.555Z,2.79
2019-01-17T06:17:01.546Z,1.90
2019-01-17T06:18:01.532Z,2.00
2019-01-17T06:19:01.522Z,2.90
2019-01-17T06:20:01.515Z,1.60
2019-01-17T06:21:01.501Z,1.79
2019-01-17T06:22:01.501Z,1.29
2019-01-17T06:23:01.480Z,2.20
2019-01-17T06:24:01.469Z,1.50
2019-01-17T06:25:01.460Z,1.39
2019-01-17T06:26:01.448Z,1.20
2019-01-17T06:27:01.436Z,1.29
2019-01-17T06:28:01.423Z,1.20
2019-01-17T06:29:01.416Z,1.20
2019-01-17T06:30:01.405Z,1.39
2019-01-17T06:31:01.393Z,1.29
2019-01-17T06:32:01.381Z,1.70
2019-01-17T06:33:01.370Z,1.70
2019-01-17T06:34:01.360Z,2.20
2019-01-17T06:35:01.353Z,1.50
2019-01-17T06:36:01.341Z,2.50
2019-01-17T06:37:01.329Z,2.09
2019-01-17T06:38:01.317Z,2.20
2019-01-17T06:39:01.309Z,1.79
2019-01-17T06:40:01.315Z,1.79
2019-01-17T06:41:01.283Z,1.60
2019-01-17T06:42:01.275Z,3.79
2019-01-17T06:43:01.264Z,2.09
2019-01-17T06:44:01.254Z,2.40
2019-01-17T06:45:01.246Z,1.70
2019-01-17T06:46:01.230Z,2.09
2019-01-17T06:47:01.220Z,2.29
2019-01-17T06:48:01.210Z,2.59
2019-01-17T06:49:01.203Z,2.90
2019-01-17T06:50:01.190Z,2.29
2019-01-17T06:51:01.178Z,2.79
2019-01-17T06:52:01.165Z,3.50
2019-01-17T06:53:01.203Z,2.50
2019-01-17T06:54:01.145Z,2.70
2019-01-17T06:55:01.135Z,2.59
2019-01-17T06:56:01.163Z,2.40
2019-01-17T06:57:01.112Z,2.20
2019-01-17T06:58:01.100Z,2.29
2019-01-17T06:59:01.089Z,2.20
2019-01-17T07:00:01.078Z,1.70
2019-01-17T07:01:01.067Z,2.29
2019-01-17T07:02:01.057Z,1.90
2019-01-17T07:03:01.046Z,1.39
2019-01-17T07:04:01.035Z,1.39
2019-01-17T07:05:01.025Z,1.20
2019-01-17T07:06:01.012Z,1.79
2019-01-17T07:07:01.001Z,2.00
2019-01-17T07:08:00.992Z,1.70
2019-01-17T07:09:00.981Z,1.50
2019-01-17T07:10:00.971Z,1.29
2019-01-17T07:11:00.960Z,1.20
2019-01-17T07:12:00.948Z,1.29
2019-01-17T07:13:00.939Z,1.20
2019-01-17T07:14:00.926Z,1.29
2019-01-17T07:15:00.927Z,1.60
2019-01-17T07:16:00.905Z,1.00
2019-01-17T07:17:00.895Z,1.29
2019-01-17T07:18:00.883Z,2.00
2019-01-17T07:19:00.873Z,1.60
2019-01-17T07:20:00.861Z,1.50
2019-01-17T07:21:00.848Z,1.90
2019-01-17T07:22:00.838Z,1.70
2019-01-17T07:23:00.828Z,1.79
2019-01-17T07:24:00.817Z,2.20
2019-01-17T07:25:00.814Z,1.60
2019-01-17T07:26:00.796Z,2.70
2019-01-17T07:27:00.784Z,2.09
2019-01-17T07:28:00.772Z,2.20
2019-01-17T07:29:00.763Z,2.00
2019-01-17T07:30:00.756Z,1.79
2019-01-17T07:31:00.744Z,2.09
2019-01-17T07:32:00.733Z,2.50
2019-01-17T07:33:00.720Z,1.50
2019-01-17T07:34:00.709Z,1.50
2019-01-17T07:35:00.696Z,1.60
2019-01-17T07:36:00.686Z,1.90
2019-01-17T07:37:00.678Z,1.90
2019-01-17T07:38:00.667Z,2.29
2019-01-17T07:39:00.654Z,1.90
2019-01-17T07:40:00.643Z,2.40
2019-01-17T07:41:00.632Z,2.50
2019-01-17T07:42:00.624Z,1.39
2019-01-17T07:43:00.610Z,1.29
2019-01-17T07:44:00.598Z,1.50
2019-01-17T07:45:00.587Z,1.10
2019-01-17T07:46:00.576Z,1.10
2019-01-17T07:47:00.567Z,1.90
2019-01-17T07:48:00.558Z,1.10
2019-01-17T07:49:00.545Z,1.60
2019-01-17T07:50:00.535Z,1.20
2019-01-17T07:51:00.523Z,1.10
2019-01-17T07:52:00.511Z,2.20
2019-01-17T07:53:00.518Z,1.70
2019-01-17T07:54:00.491Z,2.40
2019-01-17T07:55:00.482Z,1.90
2019-01-17T07:56:00.468Z,2.59
2019-01-17T07:57:00.458Z,1.79
2019-01-17T07:58:00.447Z,1.70
2019-01-17T07:59:00.437Z,2.00
2019-01-17T08:00:00.426Z,2.40
2019-01-17T08:01:00.416Z,2.00
2019-01-17T08:02:00.403Z,2.29
2019-01-17T08:03:00.394Z,2.70
2019-01-17T08:04:00.382Z,2.40
2019-01-17T08:05:00.372Z,2.20
2019-01-17T08:06:00.368Z,2.29
2019-01-17T08:07:00.348Z,2.20
2019-01-17T08:08:00.339Z,2.90
2019-01-17T08:09:00.330Z,1.39
2019-01-17T08:10:00.324Z,1.20
2019-01-17T08:11:00.309Z,2.50
2019-01-17T08:12:05.017Z,1.79
2019-01-17T08:13:00.286Z,2.00
2019-01-17T08:14:00.274Z,2.29
2019-01-17T08:15:00.267Z,2.70
2019-01-17T08:16:00.254Z,3.20
2019-01-17T08:17:00.246Z,2.70
2019-01-17T08:18:00.232Z,3.00
2019-01-17T08:19:00.220Z,2.50
2019-01-17T08:20:00.209Z,1.90
2019-01-17T08:21:00.208Z,2.40
2019-01-17T08:22:00.190Z,2.59
2019-01-17T08:23:00.178Z,1.50
2019-01-17T08:24:00.169Z,1.39
2019-01-17T08:25:00.173Z,1.50
2019-01-17T08:26:00.147Z,1.90
2019-01-17T08:27:00.135Z,1.29
2019-01-17T08:28:00.123Z,2.09
2019-01-17T08:29:00.115Z,2.00
2019-01-17T08:30:00.156Z,2.09
2019-01-17T08:31:00.092Z,1.39
2019-01-17T08:32:00.082Z,1.60
2019-01-17T08:33:00.072Z,2.00
2019-01-17T08:34:00.061Z,1.39
2019-01-17T08:35:00.052Z,1.60
2019-01-17T08:36:00.036Z,1.60
2019-01-17T08:37:00.028Z,1.29
2019-01-17T08:38:00.019Z,1.39
2019-01-17T08:39:00.011Z,1.39
2019-01-17T08:39:59.995Z,2.29
2019-01-17T08:40:59.984Z,2.90
2019-01-17T08:41:59.974Z,1.29
2019-01-17T08:43:00.007Z,1.20
2019-01-17T08:43:59.950Z,2.20
2019-01-17T08:44:59.944Z,2.50
2019-01-17T08:45:59.930Z,2.20
2019-01-17T08:46:59.921Z,1.50
2019-01-17T08:47:59.908Z,2.29
2019-01-17T08:48:59.898Z,2.20
2019-01-17T08:49:59.887Z,2.40
2019-01-17T08:50:59.878Z,2.50
2019-01-17T08:51:59.869Z,2.29
2019-01-17T08:52:59.858Z,1.79
2019-01-17T08:53:59.846Z,1.70
2019-01-17T08:54:59.835Z,2.09
2019-01-17T08:56:00.934Z,2.40
2019-01-17T08:56:59.812Z,2.20
2019-01-17T08:57:59.800Z,2.00
2019-01-17T08:58:59.795Z,2.20
2019-01-17T08:59:59.784Z,3.20
2019-01-17T09:00:59.771Z,3.20
2019-01-17T09:01:59.756Z,3.59
2019-01-17T09:02:59.748Z,1.79
2019-01-17T09:03:59.737Z,2.59
2019-01-17T09:04:59.725Z,3.09
2019-01-17T09:05:59.719Z,2.50
2019-01-17T09:06:59.703Z,2.09
2019-01-17T09:07:59.693Z,3.29
2019-01-17T09:09:00.674Z,2.29
2019-01-17T09:09:59.671Z,2.50
2019-01-17T09:10:59.664Z,4.00
2019-01-17T09:11:59.651Z,3.40
2019-01-17T09:12:59.639Z,2.70
2019-01-17T09:13:59.628Z,2.00
2019-01-17T09:14:59.617Z,2.09
2019-01-17T09:15:59.608Z,3.00
2019-01-17T09:16:59.597Z,1.90
2019-01-17T09:17:59.587Z,1.60
2019-01-17T09:18:59.574Z,2.00
2019-01-17T09:19:59.561Z,1.79
2019-01-17T09:20:59.552Z,2.20
2019-01-17T09:21:59.548Z,2.59
2019-01-17T09:22:59.533Z,2.00
2019-01-17T09:23:59.520Z,3.20
2019-01-17T09:24:59.512Z,2.50
2019-01-17T09:25:59.500Z,1.29
2019-01-17T09:26:59.488Z,3.09
2019-01-17T09:27:59.479Z,1.90
2019-01-17T09:28:59.468Z,2.00
2019-01-17T09:29:59.468Z,2.50
2019-01-17T09:30:59.445Z,2.29
2019-01-17T09:31:59.435Z,2.40
2019-01-17T09:32:59.423Z,1.50
2019-01-17T09:33:59.414Z,1.60
2019-01-17T09:34:59.402Z,2.29
2019-01-17T09:35:59.392Z,1.60
2019-01-17T09:36:59.381Z,2.20
2019-01-17T09:37:59.371Z,2.09
2019-01-17T09:38:59.363Z,1.79
2019-01-17T09:39:59.349Z,1.70
2019-01-17T09:40:59.339Z,2.29
2019-01-17T09:41:59.330Z,2.09
2019-01-17T09:42:59.320Z,2.70
2019-01-17T09:43:59.308Z,1.70
2019-01-17T09:44:59.293Z,3.00
2019-01-17T09:45:59.285Z,1.60
2019-01-17T09:46:59.280Z,2.09
2019-01-17T09:47:59.260Z,1.90
2019-01-17T09:48:59.250Z,2.59
2019-01-17T09:49:59.241Z,1.90
2019-01-17T09:50:59.231Z,1.50
2019-01-17T09:51:59.220Z,1.79
2019-01-17T09:52:59.211Z,2.20
2019-01-17T09:53:59.197Z,1.79
2019-01-17T09:54:59.187Z,1.50
2019-01-17T09:55:59.174Z,1.90
2019-01-17T09:56:59.164Z,1.50
2019-01-17T09:57:59.154Z,2.50
2019-01-17T09:58:59.144Z,1.20
2019-01-17T09:59:59.133Z,1.20
2019-01-17T10:00:59.126Z,2.09
2019-01-17T10:01:59.122Z,1.90
2019-01-17T10:02:59.099Z,2.70
2019-01-17T10:03:59.088Z,1.70
2019-01-17T10:04:59.077Z,2.59
2019-01-17T10:05:59.068Z,2.29
2019-01-17T10:06:59.060Z,2.90
2019-01-17T10:07:59.047Z,1.90
2019-01-17T10:08:59.037Z,1.39
2019-01-17T10:09:59.025Z,2.09
2019-01-17T10:10:59.015Z,2.40
2019-01-17T10:11:59.003Z,1.79
2019-01-17T10:12:58.992Z,2.79
2019-01-17T10:13:58.985Z,2.90
2019-01-17T10:14:58.973Z,2.50
2019-01-17T10:15:58.965Z,1.60
2019-01-17T10:16:58.949Z,1.60
2019-01-17T10:17:58.939Z,1.70
2019-01-17T10:18:58.929Z,2.70
2019-01-17T10:19:58.917Z,2.20
2019-01-17T10:20:58.908Z,1.70
2019-01-17T10:21:58.901Z,2.00
2019-01-17T10:22:58.885Z,1.29
2019-01-17T10:23:58.875Z,1.60
2019-01-17T10:24:58.863Z,2.00
2019-01-17T10:25:58.854Z,1.39
2019-01-17T10:26:58.844Z,2.79
2019-01-17T10:27:58.829Z,4.09
2019-01-17T10:28:59.991Z,3.50
2019-01-17T10:29:58.808Z,2.00
2019-01-17T10:30:58.799Z,2.40
2019-01-17T10:31:59.574Z,2.50
2019-01-17T10:32:58.777Z,2.70
2019-01-17T10:33:58.767Z,1.39
2019-01-17T10:34:58.755Z,2.00
2019-01-17T10:35:58.744Z,1.60
2019-01-17T10:36:58.736Z,2.09
2019-01-17T10:37:58.723Z,2.50
2019-01-17T10:38:58.711Z,2.09
2019-01-17T10:39:58.705Z,2.50
2019-01-17T10:40:58.692Z,1.50
2019-01-17T10:41:58.678Z,2.29
2019-01-17T10:42:58.669Z,2.00
2019-01-17T10:43:58.658Z,1.90
2019-01-17T10:44:58.651Z,1.50
2019-01-17T10:45:58.634Z,2.09
2019-01-17T10:46:58.623Z,1.39
2019-01-17T10:48:00.310Z,2.20
2019-01-17T10:48:58.602Z,2.09
2019-01-17T10:49:58.595Z,1.29
2019-01-17T10:50:58.583Z,1.39
2019-01-17T10:51:58.568Z,1.70
2019-01-17T10:52:58.558Z,2.29
2019-01-17T10:53:58.547Z,2.79
2019-01-17T10:54:58.536Z,2.59
2019-01-17T10:55:58.527Z,2.09
2019-01-17T10:56:58.513Z,1.39
2019-01-17T10:57:58.504Z,2.00
2019-01-17T10:58:58.491Z,1.70
2019-01-17T10:59:58.484Z,1.70
2019-01-17T11:00:58.471Z,2.50
2019-01-17T11:01:58.462Z,2.00
2019-01-17T11:02:58.448Z,1.50
2019-01-17T11:03:58.438Z,2.70
2019-01-17T11:04:58.429Z,3.59
2019-01-17T11:05:58.416Z,2.20
2019-01-17T11:06:58.408Z,1.70
2019-01-17T11:07:58.435Z,2.40
2019-01-17T11:08:58.389Z,1.60
2019-01-17T11:09:58.373Z,1.70
2019-01-17T11:10:58.362Z,2.20
2019-01-17T11:11:58.349Z,1.60
2019-01-17T11:12:58.341Z,2.20
2019-01-17T11:13:58.329Z,2.50
2019-01-17T11:14:58.320Z,1.79
2019-01-17T11:15:58.310Z,1.90
2019-01-17T11:16:58.295Z,1.60
2019-01-17T11:17:58.291Z,2.79
2019-01-17T11:18:58.275Z,1.79
2019-01-17T11:19:58.264Z,1.20
2019-01-17T11:20:58.252Z,2.09
2019-01-17T11:21:58.241Z,2.40
2019-01-17T11:22:58.231Z,2.00
2019-01-17T11:23:58.221Z,2.59
2019-01-17T11:24:58.212Z,1.29
2019-01-17T11:25:58.207Z,2.70
2019-01-17T11:26:58.187Z,2.50
2019-01-17T11:27:58.174Z,3.29
2019-01-17T11:28:58.177Z,2.40
2019-01-17T11:29:58.154Z,2.70
2019-01-17T11:30:58.143Z,3.40
2019-01-17T11:31:58.131Z,1.50
2019-01-17T11:32:58.120Z,1.50
2019-01-17T11:33:58.127Z,3.20
2019-01-17T11:34:58.100Z,3.70
2019-01-17T11:35:58.088Z,2.40
2019-01-17T11:36:58.078Z,2.29
2019-01-17T11:37:58.065Z,2.79
2019-01-17T11:38:58.055Z,2.20
2019-01-17T11:39:58.046Z,2.09
2019-01-17T11:40:58.035Z,1.90
2019-01-17T11:41:58.023Z,2.50
2019-01-17T11:42:58.013Z,2.00
2019-01-17T11:43:58.001Z,1.79
2019-01-17T11:44:57.991Z,2.20
2019-01-17T11:45:57.979Z,1.70
2019-01-17T11:46:57.974Z,2.40
2019-01-17T11:47:57.960Z,1.60
2019-01-17T11:48:57.945Z,1.79
2019-01-17T11:49:57.937Z,2.00
2019-01-17T11:50:57.924Z,1.79
2019-01-17T11:51:57.920Z,1.39
2019-01-17T11:52:57.902Z,1.20
2019-01-17T11:53:57.892Z,1.79
2019-01-17T11:54:57.880Z,2.20
2019-01-17T11:55:57.869Z,3.00
2019-01-17T11:56:57.859Z,1.70
2019-01-17T11:57:57.846Z,2.00
2019-01-17T11:59:00.214Z,1.79
2019-01-17T11:59:57.825Z,1.29
2019-01-17T12:00:57.816Z,2.59
2019-01-17T12:01:57.801Z,2.29
2019-01-17T12:02:57.796Z,1.79
2019-01-17T12:03:57.782Z,1.90
2019-01-17T12:04:57.769Z,2.79
2019-01-17T12:05:57.760Z,1.70
2019-01-17T12:06:57.748Z,2.79
2019-01-17T12:07:57.736Z,2.70
2019-01-17T12:08:57.727Z,2.40
2019-01-17T12:09:57.716Z,2.40
2019-01-17T12:10:57.705Z,1.79
2019-01-17T12:11:57.694Z,1.50
2019-01-17T12:12:57.680Z,1.70
2019-01-17T12:13:57.673Z,2.70
2019-01-17T12:14:57.662Z,1.79
2019-01-17T12:15:57.649Z,3.90
2019-01-17T12:16:57.641Z,2.20
2019-01-17T12:17:57.627Z,3.50
2019-01-17T12:18:57.621Z,1.50
2019-01-17T12:19:57.604Z,1.70
2019-01-17T12:20:57.595Z,1.90
2019-01-17T12:21:57.585Z,2.09
2019-01-17T12:22:57.574Z,1.50
2019-01-17T12:23:57.563Z,1.70
2019-01-17T12:24:57.552Z,2.29
2019-01-17T12:25:57.542Z,1.60
2019-01-17T12:26:57.528Z,2.09
2019-01-17T12:27:57.518Z,2.09
2019-01-17T12:28:57.507Z,2.20
2019-01-17T12:29:57.501Z,1.29
2019-01-17T12:30:57.496Z,1.10
2019-01-17T12:31:57.474Z,2.00
2019-01-17T12:32:57.462Z,1.20
2019-01-17T12:33:57.455Z,1.00
2019-01-17T12:34:57.442Z,2.20
2019-01-17T12:35:57.432Z,1.50
2019-01-17T12:36:57.421Z,1.60
2019-01-17T12:37:57.407Z,1.50
2019-01-17T12:38:57.404Z,1.79
2019-01-17T12:39:57.388Z,0.90
2019-01-17T12:40:57.376Z,1.50
2019-01-17T12:41:57.369Z,0.90
2019-01-17T12:42:57.353Z,1.50
2019-01-17T12:43:57.344Z,1.60
2019-01-17T12:44:57.334Z,1.20
2019-01-17T12:45:57.322Z,1.10
2019-01-17T12:46:57.311Z,1.70
2019-01-17T12:47:57.301Z,2.09
2019-01-17T12:48:57.288Z,1.39
2019-01-17T12:49:57.280Z,1.90
2019-01-17T12:50:57.368Z,1.10
2019-01-17T12:51:57.256Z,0.70
2019-01-17T12:52:57.244Z,1.20
2019-01-17T12:53:57.237Z,1.50
2019-01-17T12:54:57.222Z,1.39
2019-01-17T12:55:57.222Z,1.00
2019-01-17T12:56:57.201Z,0.90
2019-01-17T12:57:57.192Z,1.39
2019-01-17T12:58:57.177Z,1.90
2019-01-17T12:59:57.170Z,1.50
2019-01-17T13:00:57.159Z,1.20
2019-01-17T13:01:57.149Z,1.39
2019-01-17T13:02:57.138Z,1.50
2019-01-17T13:03:57.131Z,0.90
2019-01-17T13:04:57.115Z,1.70
2019-01-17T13:05:57.108Z,1.29
2019-01-17T13:06:57.091Z,1.50
2019-01-17T13:07:57.086Z,2.29
2019-01-17T13:08:57.068Z,0.80
2019-01-17T13:09:57.058Z,0.50
2019-01-17T13:10:57.059Z,0.80
2019-01-17T13:11:57.035Z,1.29
2019-01-17T13:12:57.027Z,0.60
2019-01-17T13:13:57.015Z,0.60